createdAt,value
2019-05-07T00:02:25.006Z,76.16
2019-05-07T00:04:56.866Z,76.57
2019-05-07T00:07:28.624Z,76.93
2019-05-07T00:10:00.571Z,77.22
2019-05-07T00:12:32.529Z,77.66
2019-05-07T00:15:05.841Z,78.03
2019-05-07T00:17:37.493Z,78.22
2019-05-07T00:20:09.543Z,78.32
2019-05-07T00:22:41.961Z,78.52
2019-05-07T00:25:14.087Z,78.62
2019-05-07T00:27:45.761Z,78.65
2019-05-07T00:30:18.248Z,78.81
2019-05-07T00:32:50.194Z,78.94
2019-05-07T00:35:38.894Z,79.19
2019-05-07T00:38:13.560Z,79.17
2019-05-07T00:40:56.393Z,78.81
2019-05-07T00:43:32.120Z,78.90
2019-05-07T00:46:05.319Z,78.74
2019-05-07T00:48:37.452Z,78.33
2019-05-07T00:51:27.078Z,78.38
2019-05-07T00:53:59.142Z,78.50
2019-05-07T00:56:33.112Z,78.78
2019-05-07T00:59:04.302Z,78.82
2019-05-07T01:01:36.547Z,78.90
2019-05-07T01:04:08.207Z,78.92
2019-05-07T01:06:42.411Z,79.13
2019-05-07T01:09:13.871Z,79.30
2019-05-07T01:11:47.873Z,79.53
2019-05-07T01:14:20.051Z,79.55
2019-05-07T01:16:52.954Z,79.58
2019-05-07T01:19:24.707Z,79.53
2019-05-07T01:21:56.670Z,79.73
2019-05-07T01:24:28.531Z,79.58
2019-05-07T01:27:02.062Z,78.79
2019-05-07T01:29:33.478Z,76.30
2019-05-07T01:32:15.869Z,75.71
2019-05-07T01:34:58.294Z,76.14
2019-05-07T01:37:32.394Z,76.53
2019-05-07T01:40:03.554Z,76.82
2019-05-07T01:42:36.735Z,77.17
2019-05-07T01:45:09.523Z,77.69
2019-05-07T01:47:42.573Z,78.08
2019-05-07T01:50:14.372Z,78.41
2019-05-07T01:52:46.232Z,78.66
2019-05-07T01:55:18.298Z,78.95
2019-05-07T01:57:52.287Z,78.99
2019-05-07T02:00:23.541Z,79.09
2019-05-07T02:02:59.713Z,79.13
2019-05-07T02:05:52.729Z,79.13
2019-05-07T02:08:43.459Z,78.75
2019-05-07T02:11:21.743Z,78.30
2019-05-07T02:13:53.133Z,78.20
2019-05-07T02:16:24.979Z,78.32
2019-05-07T02:18:56.857Z,78.52
2019-05-07T02:21:28.514Z,78.76
2019-05-07T02:24:00.265Z,78.85
2019-05-07T02:26:32.295Z,78.84
2019-05-07T02:29:04.278Z,78.66
2019-05-07T02:31:36.372Z,78.59
2019-05-07T02:34:08.337Z,78.78
2019-05-07T02:36:43.288Z,78.96
2019-05-07T02:39:24.949Z,79.22
2019-05-07T02:41:56.916Z,79.47
2019-05-07T02:44:28.564Z,79.44
2019-05-07T02:47:16.923Z,79.36
2019-05-07T02:49:53.851Z,79.33
2019-05-07T02:52:27.184Z,79.40
2019-05-07T02:55:09.587Z,79.42
2019-05-07T02:57:43.445Z,79.49
2019-05-07T03:00:19.115Z,79.41
2019-05-07T03:02:48.355Z,79.39
2019-05-07T03:05:23.052Z,79.40
2019-05-07T03:07:53.871Z,79.40
2019-05-07T03:10:25.670Z,79.47
2019-05-07T03:12:57.614Z,79.55
2019-05-07T03:15:29.276Z,79.53
2019-05-07T03:18:03.356Z,79.41
2019-05-07T03:20:42.956Z,79.41
2019-05-07T03:23:16.336Z,79.14
2019-05-07T03:25:49.717Z,78.94
2019-05-07T03:28:23.314Z,78.78
2019-05-07T03:31:16.636Z,78.57
2019-05-07T03:33:55.289Z,78.43
2019-05-07T03:36:47.715Z,78.29
2019-05-07T03:39:18.149Z,78.29
2019-05-07T03:41:52.906Z,78.26
2019-05-07T03:44:28.362Z,78.50
2019-05-07T03:47:17.221Z,78.59
2019-05-07T03:49:49.386Z,78.49
2019-05-07T03:52:24.125Z,78.23
2019-05-07T03:54:54.363Z,77.57
2019-05-07T03:57:26.193Z,77.00
2019-05-07T03:59:58.241Z,76.77
2019-05-07T04:02:32.928Z,76.67
2019-05-07T04:05:04.246Z,76.38
2019-05-07T04:07:37.324Z,76.12
2019-05-07T04:10:10.392Z,76.19
2019-05-07T04:12:44.305Z,76.01
2019-05-07T04:15:19.441Z,75.79
2019-05-07T04:17:49.668Z,75.57
2019-05-07T04:20:24.020Z,75.26
2019-05-07T04:22:54.609Z,74.42
2019-05-07T04:25:37.454Z,73.59
2019-05-07T04:28:14.229Z,73.14
2019-05-07T04:30:45.885Z,72.93
2019-05-07T04:33:19.037Z,72.64
2019-05-07T04:36:02.913Z,72.04
2019-05-07T04:38:34.611Z,69.11
2019-05-07T04:41:06.159Z,67.55
2019-05-07T04:43:37.752Z,66.50
2019-05-07T04:46:09.841Z,67.03
2019-05-07T04:48:44.009Z,67.07
2019-05-07T04:51:16.720Z,66.01
2019-05-07T04:53:48.593Z,65.10
2019-05-07T04:56:23.573Z,64.66
2019-05-07T04:58:53.848Z,64.07
2019-05-07T05:01:27.223Z,63.30
2019-05-07T05:03:59.136Z,63.36
2019-05-07T05:06:35.500Z,64.04
2019-05-07T05:09:12.355Z,63.35
2019-05-07T05:11:43.885Z,63.90
2019-05-07T05:14:15.661Z,63.55
2019-05-07T05:16:48.036Z,63.30
2019-05-07T05:19:19.894Z,63.45
2019-05-07T05:21:55.850Z,63.00
2019-05-07T05:24:29.040Z,62.61
2019-05-07T05:27:02.560Z,62.72
2019-05-07T05:29:35.526Z,62.23
2019-05-07T05:32:11.885Z,62.47
2019-05-07T05:34:43.649Z,62.58
2019-05-07T05:37:15.510Z,62.87
2019-05-07T05:39:47.355Z,63.25
2019-05-07T05:42:26.894Z,63.30
2019-05-07T05:44:58.853Z,63.37
2019-05-07T05:47:32.840Z,61.95
2019-05-07T05:50:08.006Z,62.38
2019-05-07T05:52:42.504Z,62.63
2019-05-07T05:55:14.587Z,63.06
2019-05-07T05:57:53.636Z,63.15
2019-05-07T06:00:36.660Z,62.23
2019-05-07T06:03:16.200Z,61.65
2019-05-07T06:05:49.780Z,61.22
2019-05-07T06:08:29.552Z,62.29
2019-05-07T06:11:09.195Z,62.13
2019-05-07T06:13:45.458Z,61.86
2019-05-07T06:16:18.961Z,61.88
2019-05-07T06:18:55.297Z,61.24
2019-05-07T06:21:45.199Z,61.50
2019-05-07T06:24:18.802Z,61.08
2019-05-07T06:26:52.230Z,60.36
2019-05-07T06:29:23.953Z,59.53
2019-05-07T06:31:57.337Z,58.99
2019-05-07T06:34:30.271Z,58.60
2019-05-07T06:37:02.376Z,59.11
2019-05-07T06:39:48.273Z,59.98
2019-05-07T06:42:22.217Z,59.28
2019-05-07T06:45:12.343Z,60.28
2019-05-07T06:47:44.333Z,59.08
2019-05-07T06:50:16.525Z,59.59
2019-05-07T06:52:48.178Z,59.65
2019-05-07T06:55:20.039Z,58.88
2019-05-07T06:57:53.022Z,57.22
2019-05-07T07:00:27.205Z,56.17
2019-05-07T07:03:02.500Z,56.05
2019-05-07T07:05:35.366Z,55.20
2019-05-07T07:08:12.511Z,54.02
2019-05-07T07:11:02.742Z,54.15
2019-05-07T07:13:35.113Z,53.98
2019-05-07T07:16:07.071Z,53.84
2019-05-07T07:18:49.558Z,53.61
2019-05-07T07:21:12.483Z,53.55
2019-05-07T07:23:44.087Z,53.09
2019-05-07T07:26:15.843Z,53.06
2019-05-07T07:28:47.621Z,52.98
2019-05-07T07:31:31.723Z,51.46
2019-05-07T07:34:04.412Z,51.72
2019-05-07T07:36:37.621Z,51.77
2019-05-07T07:39:09.719Z,51.69
2019-05-07T07:41:43.891Z,51.13
2019-05-07T07:44:15.560Z,50.56
2019-05-07T07:46:47.504Z,50.54
2019-05-07T07:49:19.310Z,50.67
2019-05-07T07:51:52.601Z,49.65
2019-05-07T07:54:24.517Z,49.99
2019-05-07T07:56:58.119Z,49.92
2019-05-07T07:59:49.457Z,50.20
2019-05-07T08:02:28.875Z,48.40
2019-05-07T08:05:02.114Z,48.15
2019-05-07T08:07:35.088Z,48.44
2019-05-07T08:10:07.321Z,48.06
2019-05-07T08:12:38.877Z,46.19
2019-05-07T08:15:18.063Z,46.76
2019-05-07T08:17:44.658Z,47.51
2019-05-07T08:20:17.598Z,47.64
2019-05-07T08:22:52.681Z,47.36
2019-05-07T08:25:48.794Z,46.58
2019-05-07T08:28:23.118Z,46.15
2019-05-07T08:31:03.016Z,45.69
2019-05-07T08:33:39.339Z,45.72
2019-05-07T08:36:14.889Z,46.64
2019-05-07T08:38:52.899Z,46.50
2019-05-07T08:41:25.684Z,44.35
2019-05-07T08:44:11.547Z,45.96
2019-05-07T08:46:52.339Z,45.66
2019-05-07T08:49:35.740Z,45.11
2019-05-07T08:52:03.454Z,44.08
2019-05-07T08:54:34.979Z,45.97
2019-05-07T08:57:06.974Z,46.08
2019-05-07T08:59:38.804Z,46.44
2019-05-07T09:02:12.602Z,45.85
2019-05-07T09:04:44.470Z,46.45
2019-05-07T09:07:16.309Z,45.68
2019-05-07T09:09:48.391Z,46.49
2019-05-07T09:12:22.728Z,46.17
2019-05-07T09:14:53.263Z,46.37
2019-05-07T09:17:24.790Z,46.77
2019-05-07T09:19:56.448Z,46.96
2019-05-07T09:22:28.431Z,46.13
2019-05-07T09:25:02.898Z,45.97
2019-05-07T09:27:38.083Z,45.28
2019-05-07T09:30:17.598Z,44.56
2019-05-07T09:33:02.890Z,45.26
2019-05-07T09:35:39.874Z,45.43
2019-05-07T09:38:12.156Z,45.52
2019-05-07T09:40:44.013Z,44.24
2019-05-07T09:43:17.541Z,44.01
2019-05-07T09:45:49.147Z,44.00
2019-05-07T09:48:22.122Z,44.06
2019-05-07T09:50:54.697Z,44.10
2019-05-07T09:53:26.577Z,43.21
2019-05-07T09:55:58.422Z,43.49
2019-05-07T09:58:36.469Z,43.96
2019-05-07T10:01:04.084Z,43.21
2019-05-07T10:03:35.758Z,42.67
2019-05-07T10:06:07.746Z,42.52
2019-05-07T10:08:39.373Z,42.30
2019-05-07T10:11:13.695Z,43.08
2019-05-07T10:13:47.092Z,42.59
2019-05-07T10:16:19.688Z,40.86
2019-05-07T10:18:52.025Z,40.28
2019-05-07T10:21:23.572Z,40.43
2019-05-07T10:23:55.227Z,40.25
2019-05-07T10:26:27.309Z,40.42
2019-05-07T10:28:59.152Z,40.83
2019-05-07T10:31:32.012Z,40.24
2019-05-07T10:34:04.003Z,40.07
2019-05-07T10:36:35.860Z,41.16
2019-05-07T10:39:08.857Z,40.39
2019-05-07T10:41:42.474Z,40.52
2019-05-07T10:44:14.340Z,40.89
2019-05-07T10:47:02.466Z,40.88
2019-05-07T10:49:36.069Z,40.29
2019-05-07T10:52:07.340Z,41.53
2019-05-07T10:54:38.867Z,40.51
2019-05-07T10:57:11.945Z,41.02
2019-05-07T10:59:43.716Z,41.01
2019-05-07T11:02:23.256Z,41.16
2019-05-07T11:04:55.116Z,41.08
2019-05-07T11:07:26.959Z,41.26
2019-05-07T11:09:58.838Z,41.80
2019-05-07T11:12:31.987Z,41.10
2019-05-07T11:15:05.119Z,41.77
2019-05-07T11:17:48.457Z,42.33
2019-05-07T11:20:22.622Z,41.79
2019-05-07T11:22:54.304Z,42.81
2019-05-07T11:25:26.177Z,42.44
2019-05-07T11:27:58.018Z,42.77
2019-05-07T11:30:31.971Z,42.58
2019-05-07T11:33:03.190Z,42.43
2019-05-07T11:35:35.258Z,43.05
2019-05-07T11:38:18.662Z,43.55
2019-05-07T11:40:42.699Z,43.89
2019-05-07T11:43:24.643Z,44.07
2019-05-07T11:45:59.041Z,44.24
2019-05-07T11:48:36.206Z,43.46
2019-05-07T11:51:15.205Z,44.17
2019-05-07T11:54:04.872Z,44.79
2019-05-07T11:56:37.243Z,45.34
2019-05-07T11:59:09.190Z,44.84
2019-05-07T12:01:47.201Z,45.68
2019-05-07T12:04:16.512Z,45.68
2019-05-07T12:06:48.474Z,46.64
2019-05-07T12:09:21.855Z,46.20
2019-05-07T12:11:53.509Z,46.77
2019-05-07T12:14:31.367Z,46.85
2019-05-07T12:16:58.574Z,47.25
2019-05-07T12:19:30.417Z,46.56
2019-05-07T12:22:02.753Z,46.38
2019-05-07T12:24:34.363Z,46.37
2019-05-07T12:27:06.533Z,46.82
2019-05-07T12:29:38.185Z,46.99
2019-05-07T12:32:22.098Z,46.95
2019-05-07T12:34:54.728Z,46.67
2019-05-07T12:37:26.055Z,47.37
2019-05-07T12:39:57.917Z,46.46
2019-05-07T12:42:29.856Z,46.55
2019-05-07T12:45:02.958Z,45.68
2019-05-07T12:47:34.606Z,45.43
2019-05-07T12:50:07.389Z,45.36
2019-05-07T12:52:55.752Z,43.79
2019-05-07T12:55:35.190Z,44.24
2019-05-07T12:58:07.149Z,43.67
2019-05-07T13:00:56.100Z,43.17
2019-05-07T13:03:35.141Z,42.66
2019-05-07T13:06:06.901Z,43.01
2019-05-07T13:08:38.740Z,43.23
2019-05-07T13:11:13.096Z,43.51
2019-05-07T13:13:44.015Z,43.07
2019-05-07T13:16:16.065Z,43.30
2019-05-07T13:18:49.151Z,43.26
2019-05-07T13:21:22.589Z,44.07
2019-05-07T13:23:54.205Z,44.78
2019-05-07T13:26:26.593Z,44.51
2019-05-07T13:28:58.537Z,44.58
2019-05-07T13:31:32.814Z,44.61
2019-05-07T13:34:05.927Z,44.27
2019-05-07T13:36:39.383Z,45.36
2019-05-07T13:39:13.179Z,46.83
2019-05-07T13:41:48.702Z,46.83
2019-05-07T13:44:27.744Z,47.15
2019-05-07T13:47:02.045Z,48.59
2019-05-07T13:49:34.283Z,48.76
2019-05-07T13:52:06.507Z,49.29
2019-05-07T13:54:38.149Z,49.11
2019-05-07T13:57:11.975Z,49.07
2019-05-07T13:59:43.510Z,49.95
2019-05-07T14:02:17.007Z,50.08
2019-05-07T14:04:48.973Z,49.48
2019-05-07T14:07:21.737Z,48.95
2019-05-07T14:09:53.924Z,48.03
2019-05-07T14:12:25.787Z,47.74
2019-05-07T14:14:57.748Z,47.78
2019-05-07T14:17:30.017Z,47.67
2019-05-07T14:20:04.902Z,49.15
2019-05-07T14:22:35.274Z,50.24
2019-05-07T14:25:07.958Z,50.03
2019-05-07T14:27:39.807Z,50.35
2019-05-07T14:30:13.014Z,50.79
2019-05-07T14:32:55.409Z,50.96
2019-05-07T14:35:28.805Z,51.84
2019-05-07T14:38:08.023Z,52.75
2019-05-07T14:40:40.104Z,53.51
2019-05-07T14:43:16.454Z,54.35
2019-05-07T14:45:48.330Z,55.33
2019-05-07T14:48:19.882Z,56.00
2019-05-07T14:50:53.027Z,56.89
2019-05-07T14:53:24.816Z,56.70
2019-05-07T14:55:56.674Z,56.53
2019-05-07T14:58:28.538Z,56.95
2019-05-07T15:01:02.421Z,57.02
2019-05-07T15:03:34.003Z,57.06
2019-05-07T15:06:05.959Z,57.06
2019-05-07T15:08:37.928Z,57.41
2019-05-07T15:11:10.108Z,57.22
2019-05-07T15:13:42.751Z,56.51
2019-05-07T15:16:14.816Z,53.10
2019-05-07T15:18:52.960Z,52.80
2019-05-07T15:21:24.721Z,53.26
2019-05-07T15:23:56.763Z,54.36
2019-05-07T15:26:28.951Z,55.18
2019-05-07T15:29:03.168Z,55.36
2019-05-07T15:31:36.869Z,55.00
2019-05-07T15:34:08.833Z,56.27
2019-05-07T15:36:42.378Z,57.15
2019-05-07T15:39:14.085Z,58.08
2019-05-07T15:41:45.930Z,58.78
2019-05-07T15:44:17.914Z,59.33
2019-05-07T15:46:52.125Z,59.95
2019-05-07T15:49:23.791Z,60.77
2019-05-07T15:51:57.371Z,61.04
2019-05-07T15:54:29.435Z,61.63
2019-05-07T15:57:03.032Z,62.50
2019-05-07T15:59:35.117Z,63.27
2019-05-07T16:02:17.916Z,63.98
2019-05-07T16:04:50.000Z,64.48
2019-05-07T16:07:22.531Z,64.99
2019-05-07T16:09:55.358Z,65.47
2019-05-07T16:12:26.996Z,66.10
2019-05-07T16:14:59.185Z,66.61
2019-05-07T16:17:32.977Z,66.81
2019-05-07T16:20:05.769Z,67.21
2019-05-07T16:22:52.608Z,67.61
2019-05-07T16:25:25.052Z,67.85
2019-05-07T16:27:58.041Z,68.33
2019-05-07T16:30:29.680Z,68.77
2019-05-07T16:33:02.299Z,69.17
2019-05-07T16:35:33.930Z,69.40
2019-05-07T16:38:05.881Z,69.54
2019-05-07T16:40:37.938Z,69.70
2019-05-07T16:43:11.915Z,69.94
2019-05-07T16:45:43.312Z,70.20
2019-05-07T16:48:15.083Z,70.48
2019-05-07T16:50:46.915Z,70.89
2019-05-07T16:53:27.509Z,71.18
2019-05-07T16:55:52.361Z,71.45
2019-05-07T16:58:28.776Z,71.82
2019-05-07T17:01:02.383Z,71.94
2019-05-07T17:03:39.021Z,72.33
2019-05-07T17:06:12.437Z,72.61
2019-05-07T17:09:04.464Z,72.87
2019-05-07T17:11:37.758Z,73.11
2019-05-07T17:14:12.722Z,73.40
2019-05-07T17:16:43.817Z,73.60
2019-05-07T17:19:16.090Z,73.91
2019-05-07T17:21:48.184Z,74.17
2019-05-07T17:24:22.204Z,74.44
2019-05-07T17:26:53.638Z,74.65
2019-05-07T17:29:25.386Z,74.85
2019-05-07T17:31:57.257Z,74.96
2019-05-07T17:34:29.112Z,75.08
2019-05-07T17:37:02.464Z,75.17
2019-05-07T17:39:34.464Z,75.33
2019-05-07T17:42:06.226Z,75.37
2019-05-07T17:44:38.073Z,75.26
2019-05-07T17:47:09.948Z,75.23
2019-05-07T17:49:42.751Z,75.13
2019-05-07T17:52:14.484Z,74.90
2019-05-07T17:54:46.329Z,74.82
2019-05-07T17:57:18.189Z,74.70
2019-05-07T17:59:52.453Z,74.60
2019-05-07T18:02:34.317Z,74.56
2019-05-07T18:05:07.634Z,74.43
2019-05-07T18:07:39.377Z,74.32
2019-05-07T18:10:12.537Z,74.46
2019-05-07T18:12:44.628Z,74.34
2019-05-07T18:15:16.572Z,74.43
2019-05-07T18:18:00.873Z,74.49
2019-05-07T18:20:33.313Z,74.84
2019-05-07T18:23:08.704Z,74.72
2019-05-07T18:25:38.984Z,74.65
2019-05-07T18:28:12.295Z,74.70
2019-05-07T18:30:44.115Z,74.60
2019-05-07T18:33:17.430Z,74.61
2019-05-07T18:35:52.575Z,74.46
2019-05-07T18:38:24.527Z,74.46
2019-05-07T18:40:56.373Z,74.67
2019-05-07T18:43:28.436Z,74.78
2019-05-07T18:46:02.249Z,74.95
2019-05-07T18:48:33.689Z,75.17
2019-05-07T18:51:06.399Z,75.51
2019-05-07T18:53:38.354Z,75.80
2019-05-07T18:56:10.092Z,75.83
2019-05-07T18:58:42.735Z,75.96
2019-05-07T19:01:15.782Z,75.96
2019-05-07T19:03:47.944Z,76.03
2019-05-07T19:06:22.319Z,76.28
2019-05-07T19:08:54.124Z,76.54
2019-05-07T19:11:26.291Z,76.55
2019-05-07T19:13:57.943Z,76.72
2019-05-07T19:16:32.186Z,76.98
2019-05-07T19:19:03.407Z,76.95
2019-05-07T19:21:35.352Z,76.84
2019-05-07T19:24:07.122Z,76.71
2019-05-07T19:26:38.781Z,76.77
2019-05-07T19:29:12.423Z,76.87
2019-05-07T19:31:44.137Z,76.98
2019-05-07T19:34:15.984Z,77.18
2019-05-07T19:36:47.754Z,77.45
2019-05-07T19:39:19.824Z,77.55
2019-05-07T19:41:52.476Z,77.77
2019-05-07T19:44:24.268Z,78.08
2019-05-07T19:46:56.122Z,78.38
2019-05-07T19:49:27.981Z,78.74
2019-05-07T19:52:01.738Z,79.03
2019-05-07T19:54:33.454Z,79.37
2019-05-07T19:57:05.609Z,79.79
2019-05-07T19:59:37.244Z,80.20
2019-05-07T20:02:12.243Z,80.49
2019-05-07T20:04:44.057Z,80.77
2019-05-07T20:07:16.248Z,80.99
2019-05-07T20:09:47.863Z,81.35
2019-05-07T20:12:19.927Z,81.60
2019-05-07T20:14:51.890Z,81.74
2019-05-07T20:17:23.871Z,82.02
2019-05-07T20:19:55.832Z,82.25
2019-05-07T20:22:27.881Z,82.45
2019-05-07T20:25:13.280Z,82.65
2019-05-07T20:27:34.374Z,82.81
2019-05-07T20:30:07.888Z,82.98
2019-05-07T20:32:42.813Z,83.15
2019-05-07T20:35:15.804Z,83.31
2019-05-07T20:37:47.749Z,83.39
2019-05-07T20:40:19.506Z,83.51
2019-05-07T20:42:52.484Z,83.51
2019-05-07T20:45:24.369Z,83.41
2019-05-07T20:47:56.103Z,83.28
2019-05-07T20:50:28.215Z,83.18
2019-05-07T20:53:01.905Z,83.05
2019-05-07T20:55:47.159Z,82.84
2019-05-07T20:58:19.133Z,82.75
2019-05-07T21:00:52.639Z,82.56
2019-05-07T21:03:24.312Z,82.46
2019-05-07T21:05:56.237Z,82.41
2019-05-07T21:08:28.039Z,82.40
2019-05-07T21:11:02.357Z,82.47
2019-05-07T21:13:34.969Z,82.52
2019-05-07T21:16:06.750Z,82.61
2019-05-07T21:18:38.687Z,82.61
2019-05-07T21:21:12.483Z,82.64
2019-05-07T21:23:43.896Z,82.70
2019-05-07T21:26:15.545Z,82.83
2019-05-07T21:28:47.502Z,82.87
2019-05-07T21:31:19.470Z,82.93
2019-05-07T21:33:52.392Z,83.06
2019-05-07T21:36:24.192Z,83.13
2019-05-07T21:38:56.071Z,83.19
2019-05-07T21:41:27.930Z,83.29
2019-05-07T21:43:59.908Z,83.28
2019-05-07T21:46:32.977Z,83.21
2019-05-07T21:49:04.971Z,83.05
2019-05-07T21:51:36.907Z,82.97
2019-05-07T21:54:23.683Z,82.88
2019-05-07T21:56:58.038Z,82.67
2019-05-07T21:59:35.495Z,82.54
2019-05-07T22:02:16.995Z,82.42
2019-05-07T22:04:49.075Z,82.39
2019-05-07T22:07:22.726Z,82.27
2019-05-07T22:09:54.539Z,82.25
2019-05-07T22:12:26.424Z,82.10
2019-05-07T22:14:58.245Z,82.19
2019-05-07T22:17:30.221Z,82.20
2019-05-07T22:20:03.063Z,82.28
2019-05-07T22:22:35.176Z,82.27
2019-05-07T22:25:07.956Z,82.29
2019-05-07T22:27:42.234Z,82.44
2019-05-07T22:30:15.768Z,82.39
2019-05-07T22:32:55.283Z,82.32
2019-05-07T22:35:28.899Z,82.05
2019-05-07T22:38:18.796Z,81.90
2019-05-07T22:40:52.279Z,81.83
2019-05-07T22:43:24.133Z,82.02
2019-05-07T22:45:55.807Z,82.13
2019-05-07T22:48:27.554Z,82.16
2019-05-07T22:50:59.529Z,82.25
2019-05-07T22:53:32.803Z,82.44
2019-05-07T22:56:05.586Z,82.58
2019-05-07T22:58:38.983Z,82.79
2019-05-07T23:01:13.087Z,82.89
2019-05-07T23:03:44.871Z,83.01
2019-05-07T23:06:16.713Z,83.05
2019-05-07T23:08:48.695Z,83.20
2019-05-07T23:11:22.932Z,83.22
2019-05-07T23:13:54.937Z,83.21
2019-05-07T23:16:26.731Z,83.18
2019-05-07T23:18:59.006Z,83.02
2019-05-07T23:21:32.012Z,82.93
2019-05-07T23:24:04.856Z,82.92
2019-05-07T23:26:49.673Z,82.96
2019-05-07T23:29:11.860Z,83.01
2019-05-07T23:31:43.630Z,83.16
2019-05-07T23:34:15.693Z,83.23
2019-05-07T23:36:48.893Z,83.23
2019-05-07T23:39:22.288Z,83.28
2019-05-07T23:42:13.903Z,83.54
2019-05-07T23:44:45.766Z,83.65
2019-05-07T23:47:17.935Z,83.88
2019-05-07T23:49:52.232Z,84.10
2019-05-07T23:52:23.293Z,84.34
2019-05-07T23:54:55.151Z,84.50
2019-05-07T23:57:27.010Z,84.67
2019-05-07T23:59:58.766Z,84.93
